createdAt,value
2017-10-29T00:00:50.036Z,13.19
2017-10-29T00:01:58.660Z,13.17
2017-10-29T00:03:07.290Z,13.16
2017-10-29T00:04:15.918Z,13.16
2017-10-29T00:05:24.541Z,13.19
2017-10-29T00:06:33.167Z,13.21
2017-10-29T00:07:41.797Z,13.2
2017-10-29T00:08:50.415Z,13.19
2017-10-29T00:09:59.041Z,13.16
2017-10-29T00:11:07.671Z,13.21
2017-10-29T00:12:16.300Z,13.26
2017-10-29T00:13:24.915Z,13.21
2017-10-29T00:14:33.544Z,13.21
2017-10-29T00:15:42.515Z,13.12
2017-10-29T00:16:51.152Z,13.12
2017-10-29T00:17:59.776Z,13.11
2017-10-29T00:19:08.399Z,13.16
2017-10-29T00:20:17.028Z,13.16
2017-10-29T00:21:25.656Z,13.21
2017-10-29T00:22:34.275Z,13.19
2017-10-29T00:23:42.905Z,13.13
2017-10-29T00:24:51.534Z,13.23
2017-10-29T00:26:00.159Z,13.16
2017-10-29T00:27:08.784Z,13.12
2017-10-29T00:28:17.408Z,13.17
2017-10-29T00:29:26.040Z,13.12
2017-10-29T00:30:34.656Z,13.12
2017-10-29T00:31:43.292Z,13.13
2017-10-29T00:32:51.915Z,13.2
2017-10-29T00:34:00.536Z,13.2
2017-10-29T00:35:09.167Z,13.16
2017-10-29T00:36:17.792Z,13.13
2017-10-29T00:37:26.414Z,13.17
2017-10-29T00:38:35.041Z,13.16
2017-10-29T00:39:43.669Z,13.13
2017-10-29T00:40:52.293Z,13.16
2017-10-29T00:42:00.914Z,13.2
2017-10-29T00:43:09.538Z,13.12
2017-10-29T00:44:18.162Z,13.13
2017-10-29T00:45:26.793Z,13.13
2017-10-29T00:46:35.416Z,13.13
2017-10-29T00:47:44.046Z,13.16
2017-10-29T00:48:52.674Z,13.16
2017-10-29T00:50:01.293Z,13.13
2017-10-29T00:51:09.922Z,13.03
2017-10-29T00:52:18.549Z,13.08
2017-10-29T00:53:27.169Z,13.08
2017-10-29T00:54:35.806Z,13.02
2017-10-29T00:55:44.432Z,12.99
2017-10-29T00:56:53.057Z,12.95
2017-10-29T00:58:01.680Z,12.88
2017-10-29T00:59:10.318Z,12.83
2017-10-29T01:00:18.938Z,13.03
2017-10-29T01:01:27.602Z,12.83
2017-10-29T01:02:36.181Z,12.86
2017-10-29T01:03:44.810Z,12.84
2017-10-29T01:04:53.439Z,12.87
2017-10-29T01:06:02.062Z,12.9
2017-10-29T01:07:10.688Z,12.84
2017-10-29T01:08:19.320Z,12.87
2017-10-29T01:09:27.946Z,12.86
2017-10-29T01:10:36.568Z,12.84
2017-10-29T01:11:45.200Z,12.9
2017-10-29T01:12:53.827Z,12.87
2017-10-29T01:14:02.449Z,12.86
2017-10-29T01:15:11.069Z,12.84
2017-10-29T01:16:19.692Z,12.86
2017-10-29T01:17:28.326Z,12.84
2017-10-29T01:18:36.947Z,12.83
2017-10-29T01:19:45.572Z,12.83
2017-10-29T01:20:54.205Z,12.83
2017-10-29T01:22:02.823Z,12.8
2017-10-29T01:23:11.454Z,12.83
2017-10-29T01:24:20.080Z,12.83
2017-10-29T01:25:28.705Z,12.83
2017-10-29T01:26:37.669Z,12.81
2017-10-29T01:27:46.294Z,12.76
2017-10-29T01:28:54.925Z,12.75
2017-10-29T01:30:03.544Z,12.78
2017-10-29T01:31:12.175Z,12.78
2017-10-29T01:32:20.806Z,12.76
2017-10-29T01:33:29.432Z,12.81
2017-10-29T01:34:38.053Z,12.81
2017-10-29T01:35:46.686Z,12.81
2017-10-29T01:36:55.309Z,12.84
2017-10-29T01:38:03.934Z,12.88
2017-10-29T01:39:12.570Z,12.86
2017-10-29T01:40:21.192Z,12.81
2017-10-29T01:41:29.814Z,12.88
2017-10-29T01:42:38.444Z,12.9
2017-10-29T01:43:47.063Z,12.84
2017-10-29T01:44:55.695Z,12.95
2017-10-29T01:46:04.317Z,12.94
2017-10-29T01:47:12.951Z,13.02
2017-10-29T01:48:21.573Z,13.02
2017-10-29T01:49:30.200Z,13.17
2017-10-29T01:50:38.821Z,13.16
2017-10-29T01:51:47.452Z,13.23
2017-10-29T01:52:56.078Z,13.2
2017-10-29T01:54:04.698Z,13.17
2017-10-29T01:55:13.326Z,13.19
2017-10-29T01:56:21.953Z,13.2
2017-10-29T01:57:30.914Z,13.27
2017-10-29T01:58:39.544Z,13.31
2017-10-29T01:59:48.168Z,13.21
2017-10-29T02:00:56.794Z,13.31
2017-10-29T02:02:05.424Z,13.27
2017-10-29T02:03:14.044Z,13.21
2017-10-29T02:04:22.676Z,13.28
2017-10-29T02:05:31.302Z,13.16
2017-10-29T02:06:39.922Z,13.23
2017-10-29T02:07:48.559Z,13.21
2017-10-29T02:08:57.183Z,13.21
2017-10-29T02:10:05.807Z,13.26
2017-10-29T02:11:14.429Z,13.13
2017-10-29T02:12:23.062Z,13.16
2017-10-29T02:13:31.680Z,13.12
2017-10-29T02:14:40.312Z,13.19
2017-10-29T02:15:48.930Z,13.19
2017-10-29T02:16:57.883Z,13.17
2017-10-29T02:18:06.508Z,13.11
2017-10-29T02:19:15.460Z,13.03
2017-10-29T02:20:24.092Z,12.98
2017-10-29T02:21:32.713Z,12.87
2017-10-29T02:22:41.338Z,12.87
2017-10-29T02:23:49.968Z,12.86
2017-10-29T02:24:58.586Z,12.9
2017-10-29T02:26:07.217Z,12.83
2017-10-29T02:27:15.846Z,12.84
2017-10-29T02:28:24.477Z,12.81
2017-10-29T02:29:33.104Z,12.87
2017-10-29T02:30:42.060Z,12.87
2017-10-29T02:31:50.688Z,12.88
2017-10-29T02:32:59.319Z,12.9
2017-10-29T02:34:07.944Z,13.01
2017-10-29T02:35:16.570Z,12.99
2017-10-29T02:36:25.198Z,12.95
2017-10-29T02:37:33.829Z,12.98
2017-10-29T02:38:42.443Z,12.88
2017-10-29T02:39:51.078Z,12.87
2017-10-29T02:40:59.703Z,12.81
2017-10-29T02:42:08.664Z,12.78
2017-10-29T02:43:17.614Z,12.81
2017-10-29T02:44:26.244Z,12.68
2017-10-29T02:45:34.872Z,12.63
2017-10-29T02:46:43.498Z,12.69
2017-10-29T02:47:52.119Z,12.61
2017-10-29T02:49:00.750Z,12.68
2017-10-29T02:50:09.374Z,12.62
2017-10-29T02:51:18.002Z,12.63
2017-10-29T02:52:26.620Z,12.68
2017-10-29T02:53:35.249Z,12.68
2017-10-29T02:54:43.876Z,12.63
2017-10-29T02:55:52.504Z,12.68
2017-10-29T02:57:01.134Z,12.66
2017-10-29T02:58:10.093Z,12.63
2017-10-29T02:59:19.052Z,12.63
2017-10-29T03:00:27.681Z,12.68
2017-10-29T03:01:36.297Z,12.62
2017-10-29T03:02:45.253Z,12.65
2017-10-29T03:03:53.883Z,12.63
2017-10-29T03:05:02.507Z,12.66
2017-10-29T03:06:11.126Z,12.66
2017-10-29T03:07:19.762Z,12.72
2017-10-29T03:08:28.386Z,12.69
2017-10-29T03:09:37.007Z,12.76
2017-10-29T03:10:45.640Z,12.78
2017-10-29T03:11:54.261Z,12.68
2017-10-29T03:13:03.219Z,12.39
2017-10-29T03:14:11.843Z,12.33
2017-10-29T03:15:20.468Z,12.1
2017-10-29T03:16:29.101Z,11.83
2017-10-29T03:17:37.723Z,11.8
2017-10-29T03:18:46.353Z,11.71
2017-10-29T03:19:54.967Z,11.55
2017-10-29T03:21:03.594Z,11.48
2017-10-29T03:22:12.222Z,11.41
2017-10-29T03:23:20.880Z,11.35
2017-10-29T03:24:29.471Z,11.33
2017-10-29T03:25:38.103Z,11.27
2017-10-29T03:26:46.725Z,11.31
2017-10-29T03:27:55.352Z,11.33
2017-10-29T03:29:03.967Z,11.2
2017-10-29T03:30:12.594Z,11.19
2017-10-29T03:31:21.219Z,11.23
2017-10-29T03:32:29.842Z,11.22
2017-10-29T03:33:38.461Z,11.2
2017-10-29T03:34:47.094Z,11.22
2017-10-29T03:35:55.717Z,11.13
2017-10-29T03:37:04.337Z,11.15
2017-10-29T03:38:12.967Z,11.07
2017-10-29T03:39:21.588Z,11.07
2017-10-29T03:40:30.213Z,11.13
2017-10-29T03:41:38.834Z,11.12
2017-10-29T03:42:47.457Z,11.19
2017-10-29T03:43:56.089Z,11.16
2017-10-29T03:45:04.720Z,11.2
2017-10-29T03:46:13.337Z,11.23
2017-10-29T03:47:21.968Z,11.18
2017-10-29T03:48:30.596Z,11.26
2017-10-29T03:49:39.209Z,11.27
2017-10-29T03:50:47.849Z,11.31
2017-10-29T03:51:56.463Z,11.41
2017-10-29T03:53:05.082Z,11.4
2017-10-29T03:54:13.706Z,11.45
2017-10-29T03:55:22.327Z,11.51
2017-10-29T03:56:30.959Z,11.45
2017-10-29T03:57:39.913Z,11.44
2017-10-29T03:58:48.535Z,11.51
2017-10-29T03:59:57.166Z,11.48
2017-10-29T04:01:05.789Z,11.43
2017-10-29T04:02:14.406Z,11.45
2017-10-29T04:03:23.367Z,11.48
2017-10-29T04:04:31.992Z,11.35
2017-10-29T04:05:40.609Z,11.38
2017-10-29T04:06:49.237Z,11.26
2017-10-29T04:07:57.864Z,11.27
2017-10-29T04:09:06.489Z,11.23
2017-10-29T04:10:15.120Z,11.31
2017-10-29T04:11:23.741Z,11.37
2017-10-29T04:12:33.058Z,11.37
2017-10-29T04:13:41.656Z,11.38
2017-10-29T04:14:50.275Z,11.35
2017-10-29T04:15:58.900Z,11.34
2017-10-29T04:17:07.529Z,11.31
2017-10-29T04:18:16.154Z,11.34
2017-10-29T04:19:24.781Z,11.31
2017-10-29T04:20:33.400Z,11.3
2017-10-29T04:21:42.027Z,11.27
2017-10-29T04:22:50.658Z,11.34
2017-10-29T04:23:59.269Z,11.37
2017-10-29T04:25:07.905Z,11.44
2017-10-29T04:26:16.527Z,11.44
2017-10-29T04:27:25.155Z,11.37
2017-10-29T04:28:33.786Z,11.38
2017-10-29T04:29:42.401Z,11.51
2017-10-29T04:30:51.027Z,11.34
2017-10-29T04:31:59.656Z,11.44
2017-10-29T04:33:08.274Z,11.53
2017-10-29T04:34:16.901Z,11.65
2017-10-29T04:35:25.528Z,11.65
2017-10-29T04:36:34.149Z,11.71
2017-10-29T04:37:42.775Z,11.74
2017-10-29T04:38:51.406Z,11.7
2017-10-29T04:40:00.031Z,11.71
2017-10-29T04:41:08.660Z,11.67
2017-10-29T04:42:17.608Z,11.65
2017-10-29T04:43:26.236Z,11.53
2017-10-29T04:44:34.862Z,11.55
2017-10-29T04:45:43.487Z,11.6
2017-10-29T04:46:52.443Z,11.55
2017-10-29T04:48:01.075Z,11.74
2017-10-29T04:49:09.697Z,11.68
2017-10-29T04:50:18.321Z,11.68
2017-10-29T04:51:26.952Z,11.74
2017-10-29T04:52:35.911Z,11.67
2017-10-29T04:53:44.530Z,11.71
2017-10-29T04:54:53.151Z,11.68
2017-10-29T04:56:01.774Z,11.78
2017-10-29T04:57:10.403Z,11.76
2017-10-29T04:58:19.026Z,11.7
2017-10-29T04:59:27.649Z,11.6
2017-10-29T05:00:36.282Z,11.65
2017-10-29T05:01:44.901Z,11.7
2017-10-29T05:02:53.523Z,11.68
2017-10-29T05:04:02.151Z,11.65
2017-10-29T05:05:10.776Z,11.59
2017-10-29T05:06:19.394Z,11.53
2017-10-29T05:07:28.022Z,11.56
2017-10-29T05:08:36.644Z,11.45
2017-10-29T05:09:45.277Z,11.56
2017-10-29T05:10:53.900Z,11.45
2017-10-29T05:12:02.867Z,11.45
2017-10-29T05:13:11.496Z,11.48
2017-10-29T05:14:20.129Z,11.45
2017-10-29T05:15:29.073Z,11.45
2017-10-29T05:16:37.703Z,11.49
2017-10-29T05:17:46.325Z,11.49
2017-10-29T05:18:54.959Z,11.49
2017-10-29T05:20:03.580Z,11.48
2017-10-29T05:21:12.204Z,11.49
2017-10-29T05:22:20.832Z,11.44
2017-10-29T05:23:29.452Z,11.45
2017-10-29T05:24:38.084Z,11.44
2017-10-29T05:25:46.703Z,11.37
2017-10-29T05:26:55.329Z,11.43
2017-10-29T05:28:03.961Z,11.44
2017-10-29T05:29:12.913Z,11.33
2017-10-29T05:30:21.533Z,11.3
2017-10-29T05:31:30.160Z,11.22
2017-10-29T05:32:38.795Z,11.33
2017-10-29T05:33:47.407Z,11.3
2017-10-29T05:34:56.035Z,11.19
2017-10-29T05:36:04.659Z,11.23
2017-10-29T05:37:13.280Z,11.18
2017-10-29T05:38:21.911Z,11.15
2017-10-29T05:39:30.540Z,11.05
2017-10-29T05:40:39.163Z,11
2017-10-29T05:41:47.790Z,10.9
2017-10-29T05:42:56.407Z,10.84
2017-10-29T05:44:05.031Z,10.69
2017-10-29T05:45:13.661Z,10.67
2017-10-29T05:46:22.277Z,10.65
2017-10-29T05:47:30.910Z,10.67
2017-10-29T05:48:39.533Z,10.68
2017-10-29T05:49:48.156Z,10.61
2017-10-29T05:50:56.781Z,10.79
2017-10-29T05:52:05.413Z,10.75
2017-10-29T05:53:14.035Z,10.75
2017-10-29T05:54:22.663Z,10.62
2017-10-29T05:55:31.282Z,10.69
2017-10-29T05:56:39.907Z,10.68
2017-10-29T05:57:48.531Z,10.57
2017-10-29T05:58:57.151Z,10.49
2017-10-29T06:00:05.781Z,10.48
2017-10-29T06:01:14.410Z,10.49
2017-10-29T06:02:23.028Z,10.49
2017-10-29T06:03:31.649Z,10.53
2017-10-29T06:04:40.281Z,10.49
2017-10-29T06:05:48.900Z,10.51
2017-10-29T06:06:57.523Z,10.49
2017-10-29T06:08:06.143Z,10.57
2017-10-29T06:09:14.763Z,10.46
2017-10-29T06:10:23.393Z,10.51
2017-10-29T06:11:32.013Z,10.43
2017-10-29T06:12:40.638Z,10.39
2017-10-29T06:13:49.272Z,10.3
2017-10-29T06:14:57.885Z,10.27
2017-10-29T06:16:06.519Z,10.25
2017-10-29T06:17:15.467Z,10.23
2017-10-29T06:18:24.094Z,10.23
2017-10-29T06:19:32.722Z,10.23
2017-10-29T06:20:41.346Z,10.27
2017-10-29T06:21:49.967Z,10.27
2017-10-29T06:22:58.583Z,10.18
2017-10-29T06:24:07.213Z,10.23
2017-10-29T06:25:15.836Z,10.07
2017-10-29T06:26:24.458Z,10.23
2017-10-29T06:27:33.078Z,10.2
2017-10-29T06:28:41.709Z,10.24
2017-10-29T06:29:50.333Z,10.23
2017-10-29T06:30:58.952Z,10.13
2017-10-29T06:32:07.581Z,10.2
2017-10-29T06:33:16.202Z,10.18
2017-10-29T06:34:24.825Z,10.21
2017-10-29T06:35:33.452Z,10.24
2017-10-29T06:36:42.071Z,10.21
2017-10-29T06:37:50.701Z,10.18
2017-10-29T06:38:59.321Z,10.25
2017-10-29T06:40:07.946Z,10.23
2017-10-29T06:41:16.575Z,10.2
2017-10-29T06:42:25.199Z,10.17
2017-10-29T06:43:33.818Z,10.18
2017-10-29T06:44:42.431Z,10.2
2017-10-29T06:45:51.056Z,10.12
2017-10-29T06:46:59.685Z,10.23
2017-10-29T06:48:08.307Z,10.15
2017-10-29T06:49:16.928Z,10.12
2017-10-29T06:50:25.557Z,10.1
2017-10-29T06:51:34.177Z,10.03
2017-10-29T06:52:42.802Z,10.09
2017-10-29T06:53:51.424Z,10.05
2017-10-29T06:55:00.048Z,10.07
2017-10-29T06:56:08.683Z,10.05
2017-10-29T06:57:17.302Z,9.97
2017-10-29T06:58:25.921Z,10.05
2017-10-29T06:59:34.553Z,10.07
2017-10-29T07:00:43.170Z,10.06
2017-10-29T07:01:51.791Z,10.25
2017-10-29T07:03:00.414Z,10.23
2017-10-29T07:04:09.042Z,10.2
2017-10-29T07:05:17.995Z,10.24
2017-10-29T07:06:26.619Z,10.24
2017-10-29T07:07:35.243Z,10.27
2017-10-29T07:08:43.875Z,10.28
2017-10-29T07:09:52.496Z,10.2
2017-10-29T07:11:01.121Z,10.27
2017-10-29T07:12:09.746Z,10.34
2017-10-29T07:13:18.360Z,10.38
2017-10-29T07:14:26.993Z,10.33
2017-10-29T07:15:35.615Z,10.39
2017-10-29T07:16:44.235Z,10.27
2017-10-29T07:17:52.867Z,10.18
2017-10-29T07:19:01.486Z,10.2
2017-10-29T07:20:10.441Z,10.27
2017-10-29T07:21:19.063Z,10.18
2017-10-29T07:22:27.688Z,10.2
2017-10-29T07:23:36.320Z,10.24
2017-10-29T07:24:44.941Z,10.18
2017-10-29T07:25:53.564Z,10.15
2017-10-29T07:27:02.193Z,10.12
2017-10-29T07:28:10.818Z,10.13
2017-10-29T07:29:19.439Z,10.07
2017-10-29T07:30:28.067Z,10.09
2017-10-29T07:31:36.692Z,10.17
2017-10-29T07:32:45.640Z,10.25
2017-10-29T07:33:54.270Z,10.34
2017-10-29T07:35:02.893Z,10.34
2017-10-29T07:36:11.521Z,10.41
2017-10-29T07:37:20.147Z,10.3
2017-10-29T07:38:28.765Z,10.39
2017-10-29T07:39:37.393Z,10.34
2017-10-29T07:40:46.021Z,10.23
2017-10-29T07:41:54.639Z,10.28
2017-10-29T07:43:03.267Z,10.17
2017-10-29T07:44:11.887Z,10.2
2017-10-29T07:45:20.504Z,10.2
2017-10-29T07:46:29.133Z,10.18
2017-10-29T07:47:37.759Z,10.31
2017-10-29T07:48:46.384Z,10.31
2017-10-29T07:49:55.013Z,10.3
2017-10-29T07:51:03.629Z,10.34
2017-10-29T07:52:12.261Z,10.33
2017-10-29T07:53:20.889Z,10.3
2017-10-29T07:54:29.503Z,10.23
2017-10-29T07:55:38.133Z,10.24
2017-10-29T07:56:46.759Z,10.3
2017-10-29T07:57:55.373Z,10.28
2017-10-29T07:59:03.998Z,10.3
2017-10-29T08:00:12.639Z,10.34
2017-10-29T08:01:21.590Z,10.38
2017-10-29T08:02:30.210Z,10.33
2017-10-29T08:03:38.837Z,10.33
2017-10-29T08:04:47.460Z,10.34
2017-10-29T08:05:56.087Z,10.36
2017-10-29T08:07:04.711Z,10.45
2017-10-29T08:08:13.330Z,10.42
2017-10-29T08:09:21.964Z,10.49
2017-10-29T08:10:30.587Z,10.49
2017-10-29T08:11:39.218Z,10.51
2017-10-29T08:12:47.836Z,10.61
2017-10-29T08:13:56.468Z,10.58
2017-10-29T08:15:05.098Z,10.51
2017-10-29T08:16:13.721Z,10.65
2017-10-29T08:17:22.346Z,10.48
2017-10-29T08:18:30.981Z,10.61
2017-10-29T08:19:39.604Z,10.49
2017-10-29T08:20:48.229Z,10.57
2017-10-29T08:21:56.847Z,10.62
2017-10-29T08:23:05.471Z,10.61
2017-10-29T08:24:14.102Z,10.65
2017-10-29T08:25:22.723Z,10.53
2017-10-29T08:26:31.345Z,10.58
2017-10-29T08:27:39.978Z,10.68
2017-10-29T08:28:48.601Z,10.62
2017-10-29T08:29:57.222Z,10.64
2017-10-29T08:31:05.855Z,10.67
2017-10-29T08:32:14.476Z,10.59
2017-10-29T08:33:23.443Z,10.68
2017-10-29T08:34:32.068Z,10.68
2017-10-29T08:35:40.689Z,10.69
2017-10-29T08:36:49.323Z,10.8
2017-10-29T08:37:58.282Z,10.87
2017-10-29T08:39:06.897Z,10.9
2017-10-29T08:40:15.531Z,10.82
2017-10-29T08:41:24.153Z,10.79
2017-10-29T08:42:32.774Z,10.82
2017-10-29T08:43:41.407Z,10.83
2017-10-29T08:44:50.034Z,10.84
2017-10-29T08:45:58.651Z,10.86
2017-10-29T08:47:07.279Z,10.86
2017-10-29T08:48:15.901Z,10.84
2017-10-29T08:49:24.531Z,10.82
2017-10-29T08:50:33.151Z,11
2017-10-29T08:51:41.775Z,10.98
2017-10-29T08:52:50.403Z,11.02
2017-10-29T08:53:59.029Z,11.19
2017-10-29T08:55:07.648Z,11.18
2017-10-29T08:56:16.285Z,11.23
2017-10-29T08:57:24.912Z,11.26
2017-10-29T08:58:33.529Z,11.31
2017-10-29T08:59:42.160Z,11.38
2017-10-29T09:00:50.788Z,11.49
2017-10-29T09:01:59.416Z,11.52
2017-10-29T09:03:08.048Z,11.53
2017-10-29T09:04:16.670Z,11.56
2017-10-29T09:05:25.291Z,11.49
2017-10-29T09:06:33.923Z,11.37
2017-10-29T09:07:42.546Z,11.31
2017-10-29T09:08:51.505Z,11.31
2017-10-29T09:10:00.133Z,11.18
2017-10-29T09:11:08.761Z,11.12
2017-10-29T09:12:17.390Z,10.98
2017-10-29T09:13:26.010Z,10.87
2017-10-29T09:14:34.638Z,10.98
2017-10-29T09:15:43.270Z,10.9
2017-10-29T09:16:51.887Z,10.95
2017-10-29T09:18:00.520Z,10.89
2017-10-29T09:19:09.142Z,11.01
2017-10-29T09:20:17.769Z,11.05
2017-10-29T09:21:26.395Z,11.13
2017-10-29T09:22:35.342Z,11.19
2017-10-29T09:23:43.970Z,11.34
2017-10-29T09:24:52.599Z,11.41
2017-10-29T09:26:01.218Z,11.59
2017-10-29T09:27:09.845Z,11.63
2017-10-29T09:28:18.474Z,11.73
2017-10-29T09:29:27.101Z,11.77
2017-10-29T09:30:36.059Z,11.85
2017-10-29T09:31:44.693Z,11.83
2017-10-29T09:32:53.316Z,11.76
2017-10-29T09:34:01.942Z,11.7
2017-10-29T09:35:10.560Z,11.63
2017-10-29T09:36:19.187Z,11.63
2017-10-29T09:37:27.817Z,11.55
2017-10-29T09:38:36.442Z,11.45
2017-10-29T09:39:45.068Z,11.56
2017-10-29T09:40:53.701Z,11.53
2017-10-29T09:42:02.332Z,11.49
2017-10-29T09:43:10.950Z,11.59
2017-10-29T09:44:19.581Z,11.49
2017-10-29T09:45:28.202Z,11.53
2017-10-29T09:46:36.826Z,11.49
2017-10-29T09:47:45.447Z,11.45
2017-10-29T09:48:54.067Z,11.53
2017-10-29T09:50:02.699Z,11.56
2017-10-29T09:51:11.321Z,11.53
2017-10-29T09:52:19.948Z,11.6
2017-10-29T09:53:28.578Z,11.59
2017-10-29T09:54:37.213Z,11.59
2017-10-29T09:55:45.821Z,11.59
2017-10-29T09:56:54.454Z,11.65
2017-10-29T09:58:03.081Z,11.7
2017-10-29T09:59:11.701Z,11.7
2017-10-29T10:00:20.328Z,11.86
2017-10-29T10:01:28.954Z,11.86
2017-10-29T10:02:37.919Z,12.07
2017-10-29T10:03:46.547Z,12.1
2017-10-29T10:04:55.498Z,12.2
2017-10-29T10:06:04.458Z,12.17
2017-10-29T10:07:13.085Z,12.23
2017-10-29T10:08:21.702Z,12.18
2017-10-29T10:09:30.339Z,12
2017-10-29T10:10:38.957Z,12.03
2017-10-29T10:11:47.590Z,11.96
2017-10-29T10:12:56.214Z,11.74
2017-10-29T10:14:04.843Z,11.76
2017-10-29T10:15:13.474Z,11.67
2017-10-29T10:16:22.096Z,11.67
2017-10-29T10:17:30.725Z,11.52
2017-10-29T10:18:39.350Z,11.55
2017-10-29T10:19:47.975Z,11.52
2017-10-29T10:20:56.939Z,11.51
2017-10-29T10:22:05.565Z,11.62
2017-10-29T10:23:14.187Z,11.68
2017-10-29T10:24:22.816Z,11.65
2017-10-29T10:25:31.442Z,11.62
2017-10-29T10:26:40.061Z,11.55
2017-10-29T10:27:48.688Z,11.49
2017-10-29T10:28:57.344Z,11.49
2017-10-29T10:30:05.935Z,11.37
2017-10-29T10:31:14.567Z,11.41
2017-10-29T10:32:23.192Z,11.34
2017-10-29T10:33:31.823Z,11.27
2017-10-29T10:34:40.453Z,11.3
2017-10-29T10:35:49.073Z,11.27
2017-10-29T10:36:57.703Z,11.26
2017-10-29T10:38:06.329Z,11.31
2017-10-29T10:39:14.963Z,11.26
2017-10-29T10:40:23.588Z,11.25
2017-10-29T10:41:32.211Z,11.35
2017-10-29T10:42:40.837Z,11.31
2017-10-29T10:43:49.466Z,11.38
2017-10-29T10:44:58.086Z,11.53
2017-10-29T10:46:06.723Z,11.58
2017-10-29T10:47:15.344Z,11.7
2017-10-29T10:48:23.977Z,11.95
2017-10-29T10:49:32.603Z,12
2017-10-29T10:50:41.226Z,12.1
2017-10-29T10:51:49.854Z,12.15
2017-10-29T10:52:58.484Z,12.15
2017-10-29T10:54:07.102Z,11.99
2017-10-29T10:55:15.730Z,12.02
2017-10-29T10:56:24.362Z,11.83
2017-10-29T10:57:32.979Z,11.88
2017-10-29T10:58:41.610Z,11.83
2017-10-29T10:59:50.241Z,11.93
2017-10-29T11:00:58.868Z,11.81
2017-10-29T11:02:07.491Z,11.85
2017-10-29T11:03:16.112Z,11.95
2017-10-29T11:04:24.737Z,11.99
2017-10-29T11:05:33.368Z,12.05
2017-10-29T11:06:41.988Z,11.97
2017-10-29T11:07:50.619Z,11.85
2017-10-29T11:08:59.246Z,11.97
2017-10-29T11:10:07.876Z,11.95
2017-10-29T11:11:16.505Z,12
2017-10-29T11:12:25.125Z,12.07
2017-10-29T11:13:33.760Z,12
2017-10-29T11:14:42.379Z,12.05
2017-10-29T11:15:51.010Z,11.97
2017-10-29T11:16:59.645Z,12.03
2017-10-29T11:18:08.263Z,12.12
2017-10-29T11:19:16.897Z,12.18
2017-10-29T11:20:25.524Z,12.28
2017-10-29T11:21:34.145Z,12.43
2017-10-29T11:22:42.778Z,12.51
2017-10-29T11:23:51.408Z,12.51
2017-10-29T11:25:00.026Z,12.47
2017-10-29T11:26:08.663Z,12.48
2017-10-29T11:27:17.290Z,12.58
2017-10-29T11:28:25.911Z,12.57
2017-10-29T11:29:34.547Z,12.54
2017-10-29T11:30:43.165Z,12.62
2017-10-29T11:31:51.791Z,12.43
2017-10-29T11:33:00.424Z,12.26
2017-10-29T11:34:09.043Z,12.14
2017-10-29T11:35:17.673Z,12.12
2017-10-29T11:36:26.303Z,11.97
2017-10-29T11:37:34.927Z,11.76
2017-10-29T11:38:43.555Z,11.44
2017-10-29T11:39:52.515Z,11.27
2017-10-29T11:41:01.170Z,11
2017-10-29T11:42:09.767Z,10.58
2017-10-29T11:43:18.401Z,10.33
2017-10-29T11:44:27.019Z,9.97
2017-10-29T11:45:35.647Z,9.76
2017-10-29T11:46:44.272Z,9.63
2017-10-29T11:47:52.895Z,9.54
2017-10-29T11:49:01.527Z,9.44
2017-10-29T11:50:10.153Z,9.45
2017-10-29T11:51:18.776Z,9.37
2017-10-29T11:52:27.427Z,9.37
2017-10-29T11:53:36.044Z,9.33
2017-10-29T11:54:44.658Z,9.36
2017-10-29T11:55:53.293Z,9.44
2017-10-29T11:57:01.918Z,9.48
2017-10-29T11:58:10.539Z,9.58
2017-10-29T11:59:19.163Z,9.58
2017-10-29T12:00:27.787Z,9.64
2017-10-29T12:01:36.421Z,9.64
2017-10-29T12:02:45.043Z,9.69
2017-10-29T12:03:53.664Z,9.88
2017-10-29T12:05:02.296Z,9.91
2017-10-29T12:06:10.909Z,10.03
2017-10-29T12:07:19.538Z,10.1
2017-10-29T12:08:28.162Z,10.23
2017-10-29T12:09:36.787Z,10.33
2017-10-29T12:10:45.420Z,10.39
2017-10-29T12:11:54.043Z,10.58
2017-10-29T12:13:02.663Z,10.59
2017-10-29T12:14:11.289Z,10.61
2017-10-29T12:15:19.910Z,10.77
2017-10-29T12:16:28.543Z,10.69
2017-10-29T12:17:37.165Z,10.75
2017-10-29T12:18:45.787Z,10.79
2017-10-29T12:19:54.421Z,10.86
2017-10-29T12:21:03.043Z,10.92
2017-10-29T12:22:11.667Z,10.9
2017-10-29T12:23:20.297Z,10.83
2017-10-29T12:24:28.924Z,10.69
2017-10-29T12:25:37.544Z,10.87
2017-10-29T12:26:46.169Z,10.82
2017-10-29T12:27:54.794Z,10.79
2017-10-29T12:29:03.425Z,10.79
2017-10-29T12:30:12.049Z,10.95
2017-10-29T12:31:20.673Z,10.95
2017-10-29T12:32:29.303Z,11.02
2017-10-29T12:33:37.925Z,11.02
2017-10-29T12:34:46.543Z,10.97
2017-10-29T12:35:55.172Z,11.07
2017-10-29T12:37:03.801Z,11.12
2017-10-29T12:38:12.419Z,11.15
2017-10-29T12:39:21.046Z,11.1
2017-10-29T12:40:29.672Z,11.19
2017-10-29T12:41:38.295Z,11.27
2017-10-29T12:42:46.927Z,11.3
2017-10-29T12:43:55.548Z,11.25
2017-10-29T12:45:04.176Z,11.31
2017-10-29T12:46:12.803Z,11.43
2017-10-29T12:47:21.423Z,11.38
2017-10-29T12:48:30.054Z,11.38
2017-10-29T12:49:38.681Z,11.48
2017-10-29T12:50:47.306Z,11.48
2017-10-29T12:51:55.929Z,11.56
2017-10-29T12:53:04.566Z,11.67
2017-10-29T12:54:13.188Z,11.73
2017-10-29T12:55:21.820Z,11.74
2017-10-29T12:56:30.449Z,11.73
2017-10-29T12:57:39.071Z,11.74
2017-10-29T12:58:47.702Z,11.68
2017-10-29T12:59:56.322Z,11.73
2017-10-29T13:01:04.948Z,11.67
2017-10-29T13:02:13.583Z,11.68
2017-10-29T13:03:22.206Z,11.74
2017-10-29T13:04:30.832Z,11.7
2017-10-29T13:05:39.449Z,11.76
2017-10-29T13:06:48.080Z,11.73
2017-10-29T13:07:56.709Z,11.67
2017-10-29T13:09:05.340Z,11.76
2017-10-29T13:10:13.964Z,11.74
2017-10-29T13:11:22.592Z,11.85
2017-10-29T13:12:31.217Z,11.83
2017-10-29T13:13:39.850Z,11.89
2017-10-29T13:14:48.801Z,11.85
2017-10-29T13:15:57.430Z,11.8
2017-10-29T13:17:06.058Z,11.85
2017-10-29T13:18:14.682Z,11.83
2017-10-29T13:19:23.306Z,11.76
2017-10-29T13:20:31.943Z,11.73
2017-10-29T13:21:40.565Z,11.71
2017-10-29T13:22:49.190Z,11.71
2017-10-29T13:23:57.822Z,11.7
2017-10-29T13:25:06.452Z,11.7
2017-10-29T13:26:15.085Z,11.74
2017-10-29T13:27:23.700Z,11.68
2017-10-29T13:28:32.655Z,11.73
2017-10-29T13:29:41.288Z,11.68
2017-10-29T13:30:49.916Z,11.67
2017-10-29T13:31:58.544Z,11.68
2017-10-29T13:33:07.178Z,11.62
2017-10-29T13:34:15.804Z,11.6
2017-10-29T13:35:24.425Z,11.53
2017-10-29T13:36:33.053Z,11.7
2017-10-29T13:37:41.683Z,11.7
2017-10-29T13:38:50.304Z,11.68
2017-10-29T13:39:58.934Z,11.74
2017-10-29T13:41:07.559Z,11.74
2017-10-29T13:42:16.190Z,11.6
2017-10-29T13:43:24.820Z,11.58
2017-10-29T13:44:33.441Z,11.52
2017-10-29T13:45:42.070Z,11.45
2017-10-29T13:46:50.703Z,11.53
2017-10-29T13:47:59.327Z,11.45
2017-10-29T13:49:08.281Z,11.52
2017-10-29T13:50:16.914Z,11.58
2017-10-29T13:51:25.899Z,11.53
2017-10-29T13:52:34.528Z,11.52
2017-10-29T13:53:43.155Z,11.67
2017-10-29T13:54:51.781Z,11.74
2017-10-29T13:56:00.426Z,11.71
2017-10-29T13:57:09.048Z,11.71
2017-10-29T13:58:17.675Z,11.78
2017-10-29T13:59:26.306Z,11.71
2017-10-29T14:00:34.928Z,11.73
2017-10-29T14:01:43.554Z,11.67
2017-10-29T14:02:52.186Z,11.63
2017-10-29T14:04:00.815Z,11.56
2017-10-29T14:05:09.442Z,11.49
2017-10-29T14:06:18.061Z,11.31
2017-10-29T14:07:26.692Z,11.31
2017-10-29T14:08:35.322Z,11.31
2017-10-29T14:09:44.273Z,11.27
2017-10-29T14:10:52.906Z,11.1
2017-10-29T14:12:01.532Z,11.04
2017-10-29T14:13:10.159Z,11.02
2017-10-29T14:14:18.789Z,11.01
2017-10-29T14:15:27.740Z,10.97
2017-10-29T14:16:36.373Z,10.86
2017-10-29T14:17:45.001Z,10.87
2017-10-29T14:18:53.617Z,10.76
2017-10-29T14:20:02.246Z,10.8
2017-10-29T14:21:10.873Z,10.77
2017-10-29T14:22:19.498Z,10.75
2017-10-29T14:23:28.125Z,10.77
2017-10-29T14:24:36.749Z,10.72
2017-10-29T14:25:45.377Z,10.76
2017-10-29T14:26:54.004Z,10.77
2017-10-29T14:28:02.622Z,10.68
2017-10-29T14:29:11.251Z,10.72
2017-10-29T14:30:19.878Z,10.76
2017-10-29T14:31:28.501Z,10.58
2017-10-29T14:32:37.133Z,10.64
2017-10-29T14:33:45.749Z,10.69
2017-10-29T14:34:54.381Z,10.61
2017-10-29T14:36:03.009Z,10.68
2017-10-29T14:37:11.628Z,10.62
2017-10-29T14:38:20.261Z,10.65
2017-10-29T14:39:28.890Z,10.58
2017-10-29T14:40:37.518Z,10.68
2017-10-29T14:41:46.139Z,10.55
2017-10-29T14:42:54.759Z,10.55
2017-10-29T14:44:03.382Z,10.49
2017-10-29T14:45:12.012Z,10.51
2017-10-29T14:46:20.631Z,10.57
2017-10-29T14:47:29.264Z,10.46
2017-10-29T14:48:37.890Z,10.51